sensor_id;sensor_type;location;lat;lon;timestamp;P1;durP1;ratioP1;P2;durP2;ratioP2
19414;SDS011;9843;48.882;12.592;2023-07-20T00:01:35;8.50;;;3.33;;
19414;SDS011;9843;48.882;12.592;2023-07-20T00:04:03;6.63;;;4.13;;
19414;SDS011;9843;48.882;12.592;2023-07-20T00:06:30;3.43;;;3.00;;
19414;SDS011;9843;48.882;12.592;2023-07-20T00:08:57;6.47;;;3.07;;
19414;SDS011;9843;48.882;12.592;2023-07-20T00:11:25;4.57;;;2.70;;
19414;SDS011;9843;48.882;12.592;2023-07-20T00:13:52;4.77;;;3.07;;
19414;SDS011;9843;48.882;12.592;2023-07-20T00:16:21;7.33;;;3.00;;
19414;SDS011;9843;48.882;12.592;2023-07-20T00:18:48;3.90;;;2.83;;
19414;SDS011;9843;48.882;12.592;2023-07-20T00:21:15;7.43;;;4.37;;
19414;SDS011;9843;48.882;12.592;2023-07-20T00:23:42;3.30;;;2.37;;
19414;SDS011;9843;48.882;12.592;2023-07-20T00:26:09;4.90;;;2.60;;
19414;SDS011;9843;48.882;12.592;2023-07-20T00:28:36;3.93;;;2.63;;
19414;SDS011;9843;48.882;12.592;2023-07-20T00:31:03;7.30;;;2.93;;
19414;SDS011;9843;48.882;12.592;2023-07-20T00:33:32;5.03;;;3.43;;
19414;SDS011;9843;48.882;12.592;2023-07-20T00:35:59;3.07;;;2.77;;
19414;SDS011;9843;48.882;12.592;2023-07-20T00:38:26;3.77;;;2.10;;
19414;SDS011;9843;48.882;12.592;2023-07-20T00:40:53;6.97;;;2.90;;
19414;SDS011;9843;48.882;12.592;2023-07-20T00:43:20;3.90;;;3.07;;
19414;SDS011;9843;48.882;12.592;2023-07-20T00:45:47;17.37;;;3.77;;
19414;SDS011;9843;48.882;12.592;2023-07-20T00:48:14;5.37;;;2.80;;
19414;SDS011;9843;48.882;12.592;2023-07-20T00:50:43;3.83;;;2.90;;
19414;SDS011;9843;48.882;12.592;2023-07-20T00:53:10;3.50;;;2.80;;
19414;SDS011;9843;48.882;12.592;2023-07-20T00:55:37;4.47;;;3.60;;
19414;SDS011;9843;48.882;12.592;2023-07-20T00:58:04;3.97;;;2.90;;
19414;SDS011;9843;48.882;12.592;2023-07-20T01:00:32;5.80;;;3.20;;
19414;SDS011;9843;48.882;12.592;2023-07-20T01:02:59;4.97;;;2.30;;
19414;SDS011;9843;48.882;12.592;2023-07-20T01:05:28;3.87;;;2.47;;
19414;SDS011;9843;48.882;12.592;2023-07-20T01:07:58;3.73;;;2.20;;
19414;SDS011;9843;48.882;12.592;2023-07-20T01:10:29;6.40;;;2.50;;
19414;SDS011;9843;48.882;12.592;2023-07-20T01:12:58;3.07;;;2.57;;
19414;SDS011;9843;48.882;12.592;2023-07-20T01:15:27;5.93;;;3.17;;
19414;SDS011;9843;48.882;12.592;2023-07-20T01:17:54;4.57;;;2.37;;
19414;SDS011;9843;48.882;12.592;2023-07-20T01:20:21;3.63;;;3.33;;
19414;SDS011;9843;48.882;12.592;2023-07-20T01:23:11;4.53;;;2.87;;
19414;SDS011;9843;48.882;12.592;2023-07-20T01:25:45;3.70;;;3.37;;
19414;SDS011;9843;48.882;12.592;2023-07-20T01:30:59;5.87;;;2.70;;
19414;SDS011;9843;48.882;12.592;2023-07-20T01:33:30;9.30;;;3.63;;
19414;SDS011;9843;48.882;12.592;2023-07-20T01:35:59;2.57;;;2.23;;
19414;SDS011;9843;48.882;12.592;2023-07-20T01:38:26;6.90;;;3.30;;
19414;SDS011;9843;48.882;12.592;2023-07-20T01:40:53;3.47;;;2.73;;
19414;SDS011;9843;48.882;12.592;2023-07-20T01:43:21;9.40;;;2.67;;
19414;SDS011;9843;48.882;12.592;2023-07-20T01:45:48;4.50;;;3.47;;
19414;SDS011;9843;48.882;12.592;2023-07-20T01:48:15;8.13;;;3.90;;
19414;SDS011;9843;48.882;12.592;2023-07-20T01:50:44;3.87;;;2.70;;
19414;SDS011;9843;48.882;12.592;2023-07-20T01:53:11;9.43;;;2.90;;
19414;SDS011;9843;48.882;12.592;2023-07-20T01:55:38;4.90;;;3.20;;
19414;SDS011;9843;48.882;12.592;2023-07-20T01:58:05;4.77;;;3.33;;
19414;SDS011;9843;48.882;12.592;2023-07-20T02:00:32;3.47;;;2.80;;
19414;SDS011;9843;48.882;12.592;2023-07-20T02:02:59;4.57;;;3.87;;
19414;SDS011;9843;48.882;12.592;2023-07-20T02:05:26;4.50;;;3.70;;
19414;SDS011;9843;48.882;12.592;2023-07-20T02:07:55;4.93;;;3.40;;
19414;SDS011;9843;48.882;12.592;2023-07-20T02:10:22;4.37;;;2.70;;
19414;SDS011;9843;48.882;12.592;2023-07-20T02:12:49;4.73;;;2.50;;
19414;SDS011;9843;48.882;12.592;2023-07-20T02:15:17;5.37;;;3.30;;
19414;SDS011;9843;48.882;12.592;2023-07-20T02:17:44;4.43;;;2.97;;
19414;SDS011;9843;48.882;12.592;2023-07-20T02:20:11;6.53;;;3.87;;
19414;SDS011;9843;48.882;12.592;2023-07-20T02:22:39;7.73;;;3.03;;
19414;SDS011;9843;48.882;12.592;2023-07-20T02:25:08;3.43;;;2.90;;
19414;SDS011;9843;48.882;12.592;2023-07-20T02:27:35;13.10;;;3.33;;
19414;SDS011;9843;48.882;12.592;2023-07-20T02:30:03;6.80;;;4.07;;
19414;SDS011;9843;48.882;12.592;2023-07-20T02:32:30;6.77;;;4.27;;
19414;SDS011;9843;48.882;12.592;2023-07-20T02:34:57;5.13;;;3.37;;
19414;SDS011;9843;48.882;12.592;2023-07-20T02:37:24;2.73;;;2.53;;
19414;SDS011;9843;48.882;12.592;2023-07-20T02:39:51;3.57;;;2.90;;
19414;SDS011;9843;48.882;12.592;2023-07-20T02:42:20;3.70;;;3.03;;
19414;SDS011;9843;48.882;12.592;2023-07-20T02:44:48;4.90;;;4.27;;
19414;SDS011;9843;48.882;12.592;2023-07-20T02:47:15;4.27;;;3.10;;
19414;SDS011;9843;48.882;12.592;2023-07-20T02:49:42;4.20;;;3.60;;
19414;SDS011;9843;48.882;12.592;2023-07-20T02:52:09;3.47;;;2.67;;
19414;SDS011;9843;48.882;12.592;2023-07-20T02:54:36;4.47;;;3.10;;
19414;SDS011;9843;48.882;12.592;2023-07-20T02:57:03;4.03;;;2.93;;
19414;SDS011;9843;48.882;12.592;2023-07-20T02:59:32;5.07;;;3.17;;
19414;SDS011;9843;48.882;12.592;2023-07-20T03:01:59;3.23;;;2.93;;
19414;SDS011;9843;48.882;12.592;2023-07-20T03:04:26;4.80;;;3.47;;
19414;SDS011;9843;48.882;12.592;2023-07-20T03:06:53;4.03;;;3.60;;
19414;SDS011;9843;48.882;12.592;2023-07-20T03:09:20;4.13;;;3.30;;
19414;SDS011;9843;48.882;12.592;2023-07-20T03:11:48;5.30;;;4.67;;
19414;SDS011;9843;48.882;12.592;2023-07-20T03:14:15;4.00;;;2.83;;
19414;SDS011;9843;48.882;12.592;2023-07-20T03:16:44;9.87;;;3.97;;
19414;SDS011;9843;48.882;12.592;2023-07-20T03:19:11;5.67;;;3.40;;
19414;SDS011;9843;48.882;12.592;2023-07-20T03:21:38;3.97;;;3.57;;
19414;SDS011;9843;48.882;12.592;2023-07-20T03:24:06;4.83;;;3.77;;
19414;SDS011;9843;48.882;12.592;2023-07-20T03:26:33;3.90;;;3.50;;
19414;SDS011;9843;48.882;12.592;2023-07-20T03:29:00;3.97;;;3.23;;
19414;SDS011;9843;48.882;12.592;2023-07-20T03:31:27;5.07;;;4.23;;
19414;SDS011;9843;48.882;12.592;2023-07-20T03:33:56;6.00;;;4.27;;
19414;SDS011;9843;48.882;12.592;2023-07-20T03:36:23;5.13;;;3.60;;
19414;SDS011;9843;48.882;12.592;2023-07-20T03:38:50;5.57;;;3.33;;
19414;SDS011;9843;48.882;12.592;2023-07-20T03:41:17;4.23;;;2.73;;
19414;SDS011;9843;48.882;12.592;2023-07-20T03:43:46;4.90;;;3.10;;
19414;SDS011;9843;48.882;12.592;2023-07-20T03:46:14;10.97;;;4.00;;
19414;SDS011;9843;48.882;12.592;2023-07-20T03:48:41;5.10;;;3.43;;
19414;SDS011;9843;48.882;12.592;2023-07-20T03:51:09;3.83;;;2.80;;
19414;SDS011;9843;48.882;12.592;2023-07-20T03:53:36;6.07;;;4.63;;
19414;SDS011;9843;48.882;12.592;2023-07-20T03:56:03;7.33;;;3.20;;
19414;SDS011;9843;48.882;12.592;2023-07-20T03:58:31;4.53;;;3.13;;
19414;SDS011;9843;48.882;12.592;2023-07-20T04:00:58;3.93;;;3.53;;
19414;SDS011;9843;48.882;12.592;2023-07-20T04:03:25;5.30;;;3.30;;
19414;SDS011;9843;48.882;12.592;2023-07-20T04:05:53;4.93;;;3.37;;
19414;SDS011;9843;48.882;12.592;2023-07-20T04:08:22;6.33;;;3.00;;
19414;SDS011;9843;48.882;12.592;2023-07-20T04:10:50;3.53;;;2.90;;
19414;SDS011;9843;48.882;12.592;2023-07-20T04:13:17;5.13;;;4.07;;
19414;SDS011;9843;48.882;12.592;2023-07-20T04:15:44;5.57;;;2.97;;
19414;SDS011;9843;48.882;12.592;2023-07-20T04:18:11;4.43;;;3.53;;
19414;SDS011;9843;48.882;12.592;2023-07-20T04:20:38;7.10;;;3.57;;
19414;SDS011;9843;48.882;12.592;2023-07-20T04:23:06;5.07;;;3.03;;
19414;SDS011;9843;48.882;12.592;2023-07-20T04:25:34;6.73;;;3.93;;
19414;SDS011;9843;48.882;12.592;2023-07-20T04:28:04;3.43;;;2.77;;
19414;SDS011;9843;48.882;12.592;2023-07-20T04:30:33;6.73;;;3.93;;
19414;SDS011;9843;48.882;12.592;2023-07-20T04:33:00;3.33;;;2.60;;
19414;SDS011;9843;48.882;12.592;2023-07-20T04:38:09;4.90;;;3.73;;
19414;SDS011;9843;48.882;12.592;2023-07-20T04:40:38;5.13;;;4.30;;
19414;SDS011;9843;48.882;12.592;2023-07-20T04:43:05;10.83;;;3.77;;
19414;SDS011;9843;48.882;12.592;2023-07-20T04:45:32;3.17;;;2.67;;
19414;SDS011;9843;48.882;12.592;2023-07-20T04:47:59;9.40;;;3.77;;
19414;SDS011;9843;48.882;12.592;2023-07-20T04:50:26;4.83;;;3.20;;
19414;SDS011;9843;48.882;12.592;2023-07-20T04:52:53;3.97;;;3.47;;
19414;SDS011;9843;48.882;12.592;2023-07-20T04:55:20;4.63;;;3.63;;
19414;SDS011;9843;48.882;12.592;2023-07-20T04:57:48;6.43;;;3.47;;
19414;SDS011;9843;48.882;12.592;2023-07-20T05:00:16;8.23;;;3.10;;
19414;SDS011;9843;48.882;12.592;2023-07-20T05:02:43;7.17;;;3.73;;
19414;SDS011;9843;48.882;12.592;2023-07-20T05:05:10;5.70;;;3.87;;
19414;SDS011;9843;48.882;12.592;2023-07-20T05:07:37;7.50;;;3.67;;
19414;SDS011;9843;48.882;12.592;2023-07-20T05:10:04;7.93;;;3.43;;
19414;SDS011;9843;48.882;12.592;2023-07-20T05:12:32;4.43;;;3.90;;
19414;SDS011;9843;48.882;12.592;2023-07-20T05:15:00;5.77;;;4.00;;
19414;SDS011;9843;48.882;12.592;2023-07-20T05:17:28;6.07;;;3.00;;
19414;SDS011;9843;48.882;12.592;2023-07-20T05:19:55;3.20;;;2.90;;
19414;SDS011;9843;48.882;12.592;2023-07-20T05:22:22;4.47;;;3.47;;
19414;SDS011;9843;48.882;12.592;2023-07-20T05:24:49;5.63;;;4.17;;
19414;SDS011;9843;48.882;12.592;2023-07-20T05:27:16;7.60;;;3.47;;
19414;SDS011;9843;48.882;12.592;2023-07-20T05:29:43;4.93;;;2.60;;
19414;SDS011;9843;48.882;12.592;2023-07-20T05:32:12;7.20;;;3.47;;
19414;SDS011;9843;48.882;12.592;2023-07-20T05:34:39;20.63;;;2.97;;
19414;SDS011;9843;48.882;12.592;2023-07-20T05:37:06;7.07;;;4.03;;
19414;SDS011;9843;48.882;12.592;2023-07-20T05:39:33;3.20;;;2.90;;
19414;SDS011;9843;48.882;12.592;2023-07-20T05:42:00;8.13;;;5.13;;
19414;SDS011;9843;48.882;12.592;2023-07-20T05:44:27;5.93;;;4.17;;
19414;SDS011;9843;48.882;12.592;2023-07-20T05:46:54;8.20;;;4.20;;
19414;SDS011;9843;48.882;12.592;2023-07-20T05:49:23;4.97;;;4.47;;
19414;SDS011;9843;48.882;12.592;2023-07-20T05:51:50;5.77;;;3.40;;
19414;SDS011;9843;48.882;12.592;2023-07-20T05:54:17;7.83;;;3.57;;
19414;SDS011;9843;48.882;12.592;2023-07-20T05:56:45;8.10;;;4.23;;
19414;SDS011;9843;48.882;12.592;2023-07-20T05:59:12;4.70;;;3.30;;
19414;SDS011;9843;48.882;12.592;2023-07-20T06:01:39;8.03;;;3.07;;
19414;SDS011;9843;48.882;12.592;2023-07-20T06:04:06;5.53;;;2.90;;
19414;SDS011;9843;48.882;12.592;2023-07-20T06:06:35;7.83;;;3.13;;
19414;SDS011;9843;48.882;12.592;2023-07-20T06:09:02;8.07;;;3.30;;
19414;SDS011;9843;48.882;12.592;2023-07-20T06:11:30;6.70;;;3.20;;
19414;SDS011;9843;48.882;12.592;2023-07-20T06:13:57;4.40;;;2.87;;
19414;SDS011;9843;48.882;12.592;2023-07-20T06:16:24;7.80;;;3.47;;
19414;SDS011;9843;48.882;12.592;2023-07-20T06:18:51;6.47;;;3.17;;
19414;SDS011;9843;48.882;12.592;2023-07-20T06:21:18;8.30;;;2.90;;
19414;SDS011;9843;48.882;12.592;2023-07-20T06:23:47;2.40;;;1.77;;
19414;SDS011;9843;48.882;12.592;2023-07-20T06:26:14;3.97;;;2.20;;
19414;SDS011;9843;48.882;12.592;2023-07-20T06:28:41;4.23;;;2.63;;
19414;SDS011;9843;48.882;12.592;2023-07-20T06:31:08;2.67;;;2.27;;
19414;SDS011;9843;48.882;12.592;2023-07-20T06:33:35;5.90;;;2.50;;
19414;SDS011;9843;48.882;12.592;2023-07-20T06:36:02;4.00;;;2.17;;
19414;SDS011;9843;48.882;12.592;2023-07-20T06:38:29;4.73;;;3.10;;
19414;SDS011;9843;48.882;12.592;2023-07-20T06:40:58;5.17;;;3.43;;
19414;SDS011;9843;48.882;12.592;2023-07-20T06:43:25;6.77;;;3.73;;
19414;SDS011;9843;48.882;12.592;2023-07-20T06:45:52;7.47;;;2.77;;
19414;SDS011;9843;48.882;12.592;2023-07-20T06:48:19;3.17;;;2.50;;
19414;SDS011;9843;48.882;12.592;2023-07-20T06:50:47;4.47;;;2.73;;
19414;SDS011;9843;48.882;12.592;2023-07-20T06:53:14;4.10;;;3.47;;
19414;SDS011;9843;48.882;12.592;2023-07-20T06:55:42;5.30;;;3.00;;
19414;SDS011;9843;48.882;12.592;2023-07-20T06:58:11;3.93;;;2.60;;
19414;SDS011;9843;48.882;12.592;2023-07-20T07:00:38;5.77;;;2.57;;
19414;SDS011;9843;48.882;12.592;2023-07-20T07:03:05;3.33;;;2.53;;
19414;SDS011;9843;48.882;12.592;2023-07-20T07:05:35;2.87;;;2.60;;
19414;SDS011;9843;48.882;12.592;2023-07-20T07:08:03;4.23;;;2.20;;
19414;SDS011;9843;48.882;12.592;2023-07-20T07:10:30;6.20;;;3.43;;
19414;SDS011;9843;48.882;12.592;2023-07-20T07:12:57;6.97;;;2.33;;
19414;SDS011;9843;48.882;12.592;2023-07-20T07:15:26;3.47;;;2.23;;
19414;SDS011;9843;48.882;12.592;2023-07-20T07:17:53;7.53;;;2.83;;
19414;SDS011;9843;48.882;12.592;2023-07-20T07:20:20;2.58;;;2.22;;
19414;SDS011;9843;48.882;12.592;2023-07-20T07:22:50;9.13;;;2.73;;
19414;SDS011;9843;48.882;12.592;2023-07-20T07:25:18;3.65;;;2.50;;
19414;SDS011;9843;48.882;12.592;2023-07-20T07:27:45;3.35;;;2.63;;
19414;SDS011;9843;48.882;12.592;2023-07-20T07:30:12;4.55;;;2.50;;
19414;SDS011;9843;48.882;12.592;2023-07-20T07:32:41;7.03;;;2.78;;
19414;SDS011;9843;48.882;12.592;2023-07-20T07:35:08;5.50;;;2.85;;
19414;SDS011;9843;48.882;12.592;2023-07-20T07:37:35;4.25;;;2.33;;
19414;SDS011;9843;48.882;12.592;2023-07-20T07:40:03;5.43;;;1.92;;
19414;SDS011;9843;48.882;12.592;2023-07-20T07:42:31;9.75;;;2.03;;
19414;SDS011;9843;48.882;12.592;2023-07-20T07:44:58;4.43;;;2.60;;
19414;SDS011;9843;48.882;12.592;2023-07-20T07:47:25;2.45;;;2.10;;
19414;SDS011;9843;48.882;12.592;2023-07-20T07:49:53;4.30;;;2.72;;
19414;SDS011;9843;48.882;12.592;2023-07-20T07:52:20;6.47;;;2.47;;
19414;SDS011;9843;48.882;12.592;2023-07-20T07:54:47;9.85;;;2.65;;
19414;SDS011;9843;48.882;12.592;2023-07-20T07:57:14;4.57;;;2.00;;
19414;SDS011;9843;48.882;12.592;2023-07-20T07:59:41;3.22;;;1.83;;
19414;SDS011;9843;48.882;12.592;2023-07-20T08:02:08;3.47;;;2.42;;
19414;SDS011;9843;48.882;12.592;2023-07-20T08:04:35;5.28;;;1.60;;
19414;SDS011;9843;48.882;12.592;2023-07-20T08:07:05;5.28;;;1.88;;
19414;SDS011;9843;48.882;12.592;2023-07-20T08:09:32;4.00;;;1.67;;
19414;SDS011;9843;48.882;12.592;2023-07-20T08:11:59;4.43;;;2.50;;
19414;SDS011;9843;48.882;12.592;2023-07-20T08:14:26;7.80;;;1.92;;
19414;SDS011;9843;48.882;12.592;2023-07-20T08:16:53;4.03;;;1.65;;
19414;SDS011;9843;48.882;12.592;2023-07-20T08:19:21;1.83;;;1.02;;
19414;SDS011;9843;48.882;12.592;2023-07-20T08:21:48;3.63;;;1.13;;
19414;SDS011;9843;48.882;12.592;2023-07-20T08:24:17;4.30;;;1.10;;
19414;SDS011;9843;48.882;12.592;2023-07-20T08:26:44;6.88;;;1.67;;
19414;SDS011;9843;48.882;12.592;2023-07-20T08:29:11;3.28;;;1.27;;
19414;SDS011;9843;48.882;12.592;2023-07-20T08:31:38;3.95;;;2.05;;
19414;SDS011;9843;48.882;12.592;2023-07-20T08:34:05;2.55;;;1.60;;
19414;SDS011;9843;48.882;12.592;2023-07-20T08:36:32;4.53;;;1.75;;
19414;SDS011;9843;48.882;12.592;2023-07-20T08:38:59;5.03;;;1.60;;
19414;SDS011;9843;48.882;12.592;2023-07-20T08:41:29;2.88;;;0.90;;
19414;SDS011;9843;48.882;12.592;2023-07-20T08:43:57;1.83;;;1.27;;
19414;SDS011;9843;48.882;12.592;2023-07-20T08:46:25;1.50;;;1.10;;
19414;SDS011;9843;48.882;12.592;2023-07-20T08:48:53;3.13;;;1.00;;
19414;SDS011;9843;48.882;12.592;2023-07-20T08:51:21;4.38;;;1.20;;
19414;SDS011;9843;48.882;12.592;2023-07-20T08:53:48;2.55;;;1.65;;
19414;SDS011;9843;48.882;12.592;2023-07-20T08:56:17;3.45;;;1.50;;
19414;SDS011;9843;48.882;12.592;2023-07-20T08:58:48;3.90;;;1.95;;
19414;SDS011;9843;48.882;12.592;2023-07-20T09:01:15;3.33;;;1.15;;
19414;SDS011;9843;48.882;12.592;2023-07-20T09:03:44;2.58;;;0.60;;
19414;SDS011;9843;48.882;12.592;2023-07-20T09:06:12;4.40;;;0.90;;
19414;SDS011;9843;48.882;12.592;2023-07-20T09:08:39;5.28;;;1.42;;
19414;SDS011;9843;48.882;12.592;2023-07-20T09:11:06;5.97;;;1.48;;
19414;SDS011;9843;48.882;12.592;2023-07-20T09:13:33;3.92;;;1.95;;
19414;SDS011;9843;48.882;12.592;2023-07-20T09:16:01;6.63;;;1.73;;
19414;SDS011;9843;48.882;12.592;2023-07-20T09:18:30;3.30;;;1.48;;
19414;SDS011;9843;48.882;12.592;2023-07-20T09:20:58;2.40;;;1.17;;
19414;SDS011;9843;48.882;12.592;2023-07-20T09:23:29;4.55;;;1.30;;
19414;SDS011;9843;48.882;12.592;2023-07-20T09:25:57;3.38;;;0.90;;
19414;SDS011;9843;48.882;12.592;2023-07-20T09:28:24;2.85;;;1.00;;
19414;SDS011;9843;48.882;12.592;2023-07-20T09:30:52;2.17;;;1.10;;
19414;SDS011;9843;48.882;12.592;2023-07-20T09:33:22;2.17;;;1.42;;
19414;SDS011;9843;48.882;12.592;2023-07-20T09:35:49;5.78;;;1.38;;
19414;SDS011;9843;48.882;12.592;2023-07-20T09:38:16;1.60;;;1.13;;
19414;SDS011;9843;48.882;12.592;2023-07-20T09:40:43;1.98;;;1.13;;
19414;SDS011;9843;48.882;12.592;2023-07-20T09:43:10;2.83;;;1.65;;
19414;SDS011;9843;48.882;12.592;2023-07-20T09:45:39;2.13;;;0.98;;
19414;SDS011;9843;48.882;12.592;2023-07-20T09:48:07;6.43;;;2.40;;
19414;SDS011;9843;48.882;12.592;2023-07-20T09:50:36;2.42;;;1.10;;
19414;SDS011;9843;48.882;12.592;2023-07-20T09:53:06;13.05;;;2.42;;
19414;SDS011;9843;48.882;12.592;2023-07-20T09:55:33;1.73;;;0.95;;
19414;SDS011;9843;48.882;12.592;2023-07-20T09:58:01;3.28;;;0.82;;
19414;SDS011;9843;48.882;12.592;2023-07-20T10:00:28;3.05;;;1.00;;
19414;SDS011;9843;48.882;12.592;2023-07-20T10:02:56;2.03;;;1.00;;
19414;SDS011;9843;48.882;12.592;2023-07-20T10:05:22;3.25;;;1.92;;
19414;SDS011;9843;48.882;12.592;2023-07-20T10:07:52;4.57;;;1.48;;
19414;SDS011;9843;48.882;12.592;2023-07-20T10:10:20;1.77;;;1.15;;
19414;SDS011;9843;48.882;12.592;2023-07-20T10:12:47;4.70;;;2.10;;
19414;SDS011;9843;48.882;12.592;2023-07-20T10:15:15;3.53;;;1.83;;
19414;SDS011;9843;48.882;12.592;2023-07-20T10:17:57;4.60;;;1.85;;
19414;SDS011;9843;48.882;12.592;2023-07-20T10:20:24;1.83;;;1.25;;
19414;SDS011;9843;48.882;12.592;2023-07-20T10:22:53;0.70;;;0.70;;
19414;SDS011;9843;48.882;12.592;2023-07-20T10:25:21;4.10;;;1.00;;
19414;SDS011;9843;48.882;12.592;2023-07-20T10:27:49;3.70;;;1.90;;
19414;SDS011;9843;48.882;12.592;2023-07-20T10:30:16;4.82;;;2.70;;
19414;SDS011;9843;48.882;12.592;2023-07-20T10:32:44;8.90;;;3.35;;
19414;SDS011;9843;48.882;12.592;2023-07-20T10:35:12;3.75;;;2.55;;
19414;SDS011;9843;48.882;12.592;2023-07-20T10:37:46;3.95;;;1.70;;
19414;SDS011;9843;48.882;12.592;2023-07-20T10:40:25;3.35;;;1.55;;
19414;SDS011;9843;48.882;12.592;2023-07-20T10:42:56;2.83;;;0.98;;
19414;SDS011;9843;48.882;12.592;2023-07-20T10:45:32;2.85;;;0.85;;
19414;SDS011;9843;48.882;12.592;2023-07-20T10:48:02;4.30;;;1.20;;
19414;SDS011;9843;48.882;12.592;2023-07-20T10:50:29;1.77;;;0.98;;
19414;SDS011;9843;48.882;12.592;2023-07-20T10:53:09;1.85;;;1.00;;
19414;SDS011;9843;48.882;12.592;2023-07-20T10:55:38;2.35;;;0.90;;
19414;SDS011;9843;48.882;12.592;2023-07-20T10:58:06;2.10;;;1.30;;
19414;SDS011;9843;48.882;12.592;2023-07-20T11:00:33;4.05;;;1.58;;
19414;SDS011;9843;48.882;12.592;2023-07-20T11:03:01;1.90;;;1.10;;
19414;SDS011;9843;48.882;12.592;2023-07-20T11:05:32;1.50;;;0.93;;
19414;SDS011;9843;48.882;12.592;2023-07-20T11:07:59;1.77;;;0.98;;
19414;SDS011;9843;48.882;12.592;2023-07-20T11:10:26;3.20;;;2.03;;
19414;SDS011;9843;48.882;12.592;2023-07-20T11:15:45;5.80;;;2.33;;
19414;SDS011;9843;48.882;12.592;2023-07-20T11:18:13;3.58;;;2.33;;
19414;SDS011;9843;48.882;12.592;2023-07-20T11:20:40;3.17;;;2.42;;
19414;SDS011;9843;48.882;12.592;2023-07-20T11:23:07;2.63;;;1.60;;
19414;SDS011;9843;48.882;12.592;2023-07-20T11:25:36;3.50;;;1.15;;
19414;SDS011;9843;48.882;12.592;2023-07-20T11:28:06;2.40;;;0.65;;
19414;SDS011;9843;48.882;12.592;2023-07-20T11:30:33;1.95;;;0.98;;
19414;SDS011;9843;48.882;12.592;2023-07-20T11:33:02;4.60;;;0.93;;
19414;SDS011;9843;48.882;12.592;2023-07-20T11:35:29;5.53;;;1.20;;
19414;SDS011;9843;48.882;12.592;2023-07-20T11:37:56;2.13;;;1.50;;
19414;SDS011;9843;48.882;12.592;2023-07-20T11:40:24;2.38;;;1.20;;
19414;SDS011;9843;48.882;12.592;2023-07-20T11:42:51;3.60;;;1.33;;
19414;SDS011;9843;48.882;12.592;2023-07-20T11:45:19;1.67;;;0.98;;
19414;SDS011;9843;48.882;12.592;2023-07-20T11:47:46;7.35;;;0.95;;
19414;SDS011;9843;48.882;12.592;2023-07-20T11:50:15;5.47;;;1.17;;
19414;SDS011;9843;48.882;12.592;2023-07-20T11:52:42;3.95;;;1.45;;
19414;SDS011;9843;48.882;12.592;2023-07-20T11:55:09;3.03;;;1.02;;
19414;SDS011;9843;48.882;12.592;2023-07-20T11:57:37;4.22;;;1.40;;
19414;SDS011;9843;48.882;12.592;2023-07-20T12:00:04;4.28;;;0.98;;
19414;SDS011;9843;48.882;12.592;2023-07-20T12:02:36;3.53;;;1.42;;
19414;SDS011;9843;48.882;12.592;2023-07-20T12:05:04;1.98;;;1.08;;
19414;SDS011;9843;48.882;12.592;2023-07-20T12:07:35;1.50;;;1.15;;
19414;SDS011;9843;48.882;12.592;2023-07-20T12:10:05;2.72;;;1.17;;
19414;SDS011;9843;48.882;12.592;2023-07-20T12:12:32;2.53;;;1.58;;
19414;SDS011;9843;48.882;12.592;2023-07-20T12:15:15;4.18;;;1.17;;
19414;SDS011;9843;48.882;12.592;2023-07-20T12:17:43;3.83;;;0.90;;
19414;SDS011;9843;48.882;12.592;2023-07-20T12:20:10;3.17;;;1.27;;
19414;SDS011;9843;48.882;12.592;2023-07-20T12:22:39;4.07;;;1.08;;
19414;SDS011;9843;48.882;12.592;2023-07-20T12:25:07;4.45;;;1.67;;
19414;SDS011;9843;48.882;12.592;2023-07-20T12:27:35;1.75;;;0.88;;
19414;SDS011;9843;48.882;12.592;2023-07-20T12:30:04;1.90;;;1.08;;
19414;SDS011;9843;48.882;12.592;2023-07-20T12:32:31;2.08;;;0.80;;
19414;SDS011;9843;48.882;12.592;2023-07-20T12:34:58;1.65;;;0.75;;
19414;SDS011;9843;48.882;12.592;2023-07-20T12:37:25;2.25;;;0.95;;
19414;SDS011;9843;48.882;12.592;2023-07-20T12:39:53;1.42;;;0.70;;
19414;SDS011;9843;48.882;12.592;2023-07-20T12:42:21;2.50;;;0.80;;
19414;SDS011;9843;48.882;12.592;2023-07-20T12:44:48;1.77;;;0.73;;
19414;SDS011;9843;48.882;12.592;2023-07-20T12:47:15;2.60;;;1.13;;
19414;SDS011;9843;48.882;12.592;2023-07-20T12:49:43;2.42;;;1.40;;
19414;SDS011;9843;48.882;12.592;2023-07-20T12:52:11;2.50;;;1.30;;
19414;SDS011;9843;48.882;12.592;2023-07-20T12:54:39;1.48;;;0.70;;
19414;SDS011;9843;48.882;12.592;2023-07-20T12:57:07;1.73;;;0.95;;
19414;SDS011;9843;48.882;12.592;2023-07-20T12:59:34;2.33;;;1.13;;
19414;SDS011;9843;48.882;12.592;2023-07-20T13:02:02;0.95;;;0.73;;
19414;SDS011;9843;48.882;12.592;2023-07-20T13:04:29;1.17;;;0.98;;
19414;SDS011;9843;48.882;12.592;2023-07-20T13:06:56;4.03;;;1.38;;
19414;SDS011;9843;48.882;12.592;2023-07-20T13:09:23;3.22;;;0.95;;
19414;SDS011;9843;48.882;12.592;2023-07-20T13:11:51;6.13;;;0.82;;
19414;SDS011;9843;48.882;12.592;2023-07-20T13:14:19;2.15;;;0.98;;
19414;SDS011;9843;48.882;12.592;2023-07-20T13:16:47;3.58;;;1.20;;
19414;SDS011;9843;48.882;12.592;2023-07-20T13:19:14;3.38;;;1.25;;
19414;SDS011;9843;48.882;12.592;2023-07-20T13:21:41;3.80;;;0.75;;
19414;SDS011;9843;48.882;12.592;2023-07-20T13:24:08;3.13;;;1.58;;
19414;SDS011;9843;48.882;12.592;2023-07-20T13:26:35;5.20;;;1.90;;
19414;SDS011;9843;48.882;12.592;2023-07-20T13:29:02;1.77;;;1.00;;
19414;SDS011;9843;48.882;12.592;2023-07-20T13:31:31;1.52;;;0.95;;
19414;SDS011;9843;48.882;12.592;2023-07-20T13:33:58;4.75;;;1.00;;
19414;SDS011;9843;48.882;12.592;2023-07-20T13:36:25;3.38;;;1.13;;
19414;SDS011;9843;48.882;12.592;2023-07-20T13:38:52;3.33;;;0.70;;
19414;SDS011;9843;48.882;12.592;2023-07-20T13:41:19;1.45;;;1.00;;
19414;SDS011;9843;48.882;12.592;2023-07-20T13:43:46;0.98;;;0.73;;
19414;SDS011;9843;48.882;12.592;2023-07-20T13:46:13;7.72;;;1.13;;
19414;SDS011;9843;48.882;12.592;2023-07-20T13:48:42;4.22;;;1.33;;
19414;SDS011;9843;48.882;12.592;2023-07-20T13:51:09;4.72;;;1.23;;
19414;SDS011;9843;48.882;12.592;2023-07-20T13:53:36;4.43;;;1.05;;
19414;SDS011;9843;48.882;12.592;2023-07-20T13:56:03;2.28;;;0.93;;
19414;SDS011;9843;48.882;12.592;2023-07-20T13:58:30;3.53;;;1.00;;
19414;SDS011;9843;48.882;12.592;2023-07-20T14:00:57;1.00;;;0.73;;
19414;SDS011;9843;48.882;12.592;2023-07-20T14:03:24;1.15;;;1.02;;
19414;SDS011;9843;48.882;12.592;2023-07-20T14:05:52;2.35;;;1.35;;
19414;SDS011;9843;48.882;12.592;2023-07-20T14:08:20;2.20;;;1.05;;
19414;SDS011;9843;48.882;12.592;2023-07-20T14:10:47;1.63;;;0.90;;
19414;SDS011;9843;48.882;12.592;2023-07-20T14:13:14;1.50;;;0.77;;
19414;SDS011;9843;48.882;12.592;2023-07-20T14:15:41;1.88;;;1.33;;
19414;SDS011;9843;48.882;12.592;2023-07-20T14:18:08;0.77;;;0.73;;
19414;SDS011;9843;48.882;12.592;2023-07-20T14:20:36;2.85;;;1.40;;
19414;SDS011;9843;48.882;12.592;2023-07-20T14:23:04;3.83;;;1.77;;
19414;SDS011;9843;48.882;12.592;2023-07-20T14:25:31;6.40;;;3.25;;
19414;SDS011;9843;48.882;12.592;2023-07-20T14:27:58;3.85;;;1.05;;
19414;SDS011;9843;48.882;12.592;2023-07-20T14:30:25;3.78;;;1.08;;
19414;SDS011;9843;48.882;12.592;2023-07-20T14:32:53;2.17;;;1.17;;
19414;SDS011;9843;48.882;12.592;2023-07-20T14:35:20;3.70;;;1.10;;
19414;SDS011;9843;48.882;12.592;2023-07-20T14:37:47;1.75;;;0.85;;
19414;SDS011;9843;48.882;12.592;2023-07-20T14:40:16;1.75;;;0.73;;
19414;SDS011;9843;48.882;12.592;2023-07-20T14:42:43;0.95;;;0.77;;
19414;SDS011;9843;48.882;12.592;2023-07-20T14:45:10;2.03;;;1.00;;
19414;SDS011;9843;48.882;12.592;2023-07-20T14:47:38;2.33;;;0.82;;
19414;SDS011;9843;48.882;12.592;2023-07-20T14:50:05;2.45;;;1.10;;
19414;SDS011;9843;48.882;12.592;2023-07-20T14:52:32;3.00;;;1.17;;
19414;SDS011;9843;48.882;12.592;2023-07-20T14:54:59;0.88;;;0.50;;
19414;SDS011;9843;48.882;12.592;2023-07-20T14:57:28;1.85;;;1.00;;
19414;SDS011;9843;48.882;12.592;2023-07-20T14:59:55;1.17;;;0.80;;